Time;durP1;ratioP1;P1;durP2;ratioP2;P2;SDS_P1;SDS_P2;PMS_P1;PMS_P2;Temp;Humidity;BMP_temperature;BMP_pressure;BME280_temperature;BME280_humidity;BME280_pressure;Samples;Min_cycle;Max_cycle;Signal;HPM_P1;HPM_P2
2021/03/21 00:02:35;;;;;;;11.27;7.85;;;22.00;32.10;;;;;;5094763;28;20107;-73
2021/03/21 00:05:01;;;;;;;13.00;7.40;;;22.00;32.10;;;;;;5094199;28;20103;-73
2021/03/21 00:07:26;;;;;;;9.52;7.80;;;22.00;32.10;;;;;;5094606;28;20102;-74
2021/03/21 00:09:52;;;;;;;9.90;7.32;;;22.00;32.20;;;;;;5094674;28;20043;-74
2021/03/21 00:12:17;;;;;;;9.15;7.43;;;22.00;32.20;;;;;;5094455;28;20514;-74
2021/03/21 00:14:43;;;;;;;9.73;7.32;;;22.00;32.20;;;;;;5094456;28;20438;-74
2021/03/21 00:17:08;;;;;;;10.30;7.55;;;22.00;32.20;;;;;;5094617;28;20025;-74
2021/03/21 00:19:34;;;;;;;7.90;6.57;;;22.00;32.30;;;;;;5075647;28;20040;-74
2021/03/21 00:21:59;;;;;;;12.38;8.25;;;22.00;32.30;;;;;;5100952;28;20023;-74
2021/03/21 00:24:25;;;;;;;9.98;6.70;;;21.90;32.30;;;;;;5102166;28;20082;-74
2021/03/21 00:26:51;;;;;;;9.73;7.40;;;21.90;32.20;;;;;;5100472;28;20069;-74
2021/03/21 00:29:16;;;;;;;11.50;7.53;;;21.90;32.30;;;;;;5078651;28;20089;-73
2021/03/21 00:31:42;;;;;;;10.13;7.85;;;21.90;32.30;;;;;;5094431;28;20099;-73
2021/03/21 00:34:07;;;;;;;10.25;7.45;;;21.90;32.40;;;;;;5075525;28;20040;-73
2021/03/21 00:36:33;;;;;;;9.77;7.25;;;21.80;32.30;;;;;;5096335;28;20544;-73
2021/03/21 00:38:59;;;;;;;10.43;7.50;;;21.80;32.30;;;;;;5104637;28;20055;-73
2021/03/21 00:41:25;;;;;;;10.63;7.13;;;21.80;32.40;;;;;;5081717;28;20107;-73
2021/03/21 00:43:53;;;;;;;11.43;7.68;;;21.80;33.10;;;;;;5059124;28;20039;-74
2021/03/21 00:46:19;;;;;;;10.80;7.53;;;21.80;32.50;;;;;;5073959;28;20039;-72
2021/03/21 00:49:15;;;;;;;8.75;7.22;;;21.80;32.50;;;;;;5076335;28;20288;-72
2021/03/21 00:51:41;;;;;;;12.57;8.10;;;21.70;32.50;;;;;;5094184;28;20024;-72
2021/03/21 00:54:15;;;;;;;9.55;7.03;;;21.80;32.60;;;;;;5093816;28;20020;-72
2021/03/21 00:56:41;;;;;;;10.68;7.75;;;21.70;32.60;;;;;;5073164;28;20404;-73
2021/03/21 00:59:07;;;;;;;9.77;7.30;;;21.70;32.60;;;;;;5075762;28;20028;-73
2021/03/21 01:01:33;;;;;;;10.57;7.32;;;21.70;32.60;;;;;;5075800;28;20052;-73
2021/03/21 01:03:59;;;;;;;11.13;8.35;;;21.80;32.70;;;;;;5075400;28;20139;-73
2021/03/21 01:06:25;;;;;;;11.90;7.25;;;21.70;32.50;;;;;;5075170;28;20116;-75
2021/03/21 01:08:59;;;;;;;8.88;6.55;;;21.80;32.60;;;;;;5075135;28;20100;-75
2021/03/21 01:11:30;;;;;;;9.07;7.50;;;21.80;32.50;;;;;;5060014;28;20519;-73
2021/03/21 01:13:56;;;;;;;10.32;7.85;;;21.80;32.60;;;;;;5063179;28;20032;-75
2021/03/21 01:16:26;;;;;;;8.07;6.65;;;21.80;32.60;;;;;;5078067;28;20510;-75
2021/03/21 01:18:55;;;;;;;11.18;7.80;;;21.80;32.50;;;;;;5055309;28;20108;-75
2021/03/21 01:21:25;;;;;;;8.40;7.15;;;21.80;32.50;;;;;;5058623;28;20028;-76
2021/03/21 01:23:50;;;;;;;8.80;7.28;;;21.80;32.50;;;;;;5057548;28;20024;-76
2021/03/21 01:26:26;;;;;;;9.55;7.55;;;21.70;32.50;;;;;;5076834;28;20031;-75
2021/03/21 01:28:54;;;;;;;;;;;21.70;32.50;;;;;;5074944;28;20040;-76
2021/03/21 01:31:20;;;;;;;10.13;7.72;;;21.70;32.50;;;;;;5111104;28;20402;-76
2021/03/21 01:33:46;;;;;;;9.02;6.95;;;21.70;32.60;;;;;;5071092;28;20019;-75
2021/03/21 01:36:17;;;;;;;9.75;7.43;;;21.70;32.50;;;;;;5057594;28;20032;-75
2021/03/21 01:38:43;;;;;;;8.88;6.78;;;21.70;32.60;;;;;;5075436;28;20085;-76
2021/03/21 01:41:17;;;;;;;10.07;7.75;;;21.70;32.60;;;;;;5092962;28;20443;-75
2021/03/21 01:43:43;;;;;;;11.13;8.02;;;21.70;33.30;;;;;;5064882;28;20467;-75
2021/03/21 01:46:09;;;;;;;8.38;7.03;;;21.70;32.70;;;;;;5075894;28;20032;-75
2021/03/21 01:48:47;;;;;;;9.85;7.38;;;21.70;32.70;;;;;;5073966;28;20085;-76
2021/03/21 01:51:20;;;;;;;9.80;7.13;;;21.70;32.80;;;;;;5075883;28;20024;-75
2021/03/21 01:53:48;;;;;;;10.52;7.53;;;21.60;32.70;;;;;;5057790;28;20051;-76
2021/03/21 01:56:13;;;;;;;8.98;6.40;;;21.60;32.70;;;;;;5058030;28;20031;-75
2021/03/21 01:58:46;;;;;;;10.40;7.10;;;21.60;32.80;;;;;;5060274;28;20032;-75
2021/03/21 02:01:21;;;;;;;14.25;7.60;;;21.60;32.80;;;;;;5061976;28;20026;-75
2021/03/21 02:03:46;;;;;;;9.65;7.50;;;21.60;32.80;;;;;;5075459;28;20079;-76
2021/03/21 02:06:27;;;;;;;12.02;7.57;;;21.60;32.90;;;;;;5081832;28;20523;-76
2021/03/21 02:08:57;;;;;;;11.40;7.82;;;21.60;32.90;;;;;;5093098;28;20106;-76
2021/03/21 02:11:37;;;;;;;10.95;8.07;;;21.60;33.00;;;;;;5075973;28;20050;-76
2021/03/21 02:14:06;;;;;;;10.23;7.50;;;21.60;33.00;;;;;;5093376;28;20522;-77
2021/03/21 02:16:38;;;;;;;9.95;6.72;;;21.50;33.00;;;;;;5093871;28;20038;-77
2021/03/21 02:19:18;;;;;;;11.80;7.60;;;21.50;33.00;;;;;;5064032;28;20044;-77
2021/03/21 02:21:50;;;;;;;11.13;7.15;;;21.50;33.00;;;;;;5079529;28;20555;-78
2021/03/21 02:24:37;;;;;;;11.27;7.40;;;21.50;33.10;;;;;;5045462;28;20036;-76
2021/03/21 02:27:12;;;;;;;11.30;8.05;;;21.50;33.10;;;;;;5077915;28;20039;-76
2021/03/21 02:29:38;;;;;;;10.70;7.05;;;21.50;33.20;;;;;;5104476;28;20024;-76
2021/03/21 02:32:03;;;;;;;10.25;7.75;;;21.50;33.20;;;;;;5103419;28;20102;-77
2021/03/21 02:34:53;;;;;;;11.77;8.27;;;21.50;33.20;;;;;;5096139;28;20024;-77
2021/03/21 02:37:42;;;;;;;9.98;7.15;;;21.50;33.30;;;;;;5077849;28;20518;-77
2021/03/21 02:40:40;;;;;;;10.93;7.65;;;21.50;33.40;;;;;;5059598;28;20020;-77
2021/03/21 02:43:11;;;;;;;12.18;8.00;;;21.50;33.30;;;;;;5063612;28;20051;-76
2021/03/21 02:45:37;;;;;;;11.57;7.57;;;21.40;33.30;;;;;;5055006;28;20060;-76
2021/03/21 02:48:14;;;;;;;11.55;8.10;;;21.40;33.30;;;;;;5073932;28;20043;-77
2021/03/21 02:50:47;;;;;;;12.55;8.68;;;21.40;33.40;;;;;;5042170;28;20036;-77
2021/03/21 02:53:22;;;;;;;14.90;8.13;;;21.40;33.40;;;;;;5062358;28;20018;-77
2021/03/21 02:55:49;;;;;;;10.38;7.22;;;21.40;33.40;;;;;;5076358;28;20028;-77
2021/03/21 02:58:39;;;;;;;10.80;7.55;;;21.40;33.40;;;;;;5057981;28;20064;-77
2021/03/21 03:01:14;;;;;;;12.45;8.35;;;21.40;33.30;;;;;;5064753;28;20044;-77
2021/03/21 03:03:43;;;;;;;12.93;8.90;;;21.40;33.30;;;;;;5058250;28;20082;-77
2021/03/21 03:06:11;;;;;;;11.38;7.90;;;21.50;33.30;;;;;;5074544;28;20069;-77
2021/03/21 03:09:13;;;;;;;13.13;9.40;;;21.50;33.40;;;;;;5059425;28;20028;-77
2021/03/21 03:11:41;;;;;;;11.25;7.72;;;21.50;33.30;;;;;;5079044;28;20024;-78
2021/03/21 03:14:10;;;;;;;12.07;8.45;;;21.50;33.30;;;;;;5096312;28;20097;-77
2021/03/21 03:16:46;;;;;;;13.52;8.80;;;21.50;33.30;;;;;;5078172;28;20107;-77
2021/03/21 03:19:44;;;;;;;14.50;8.52;;;21.50;33.30;;;;;;5080685;28;20066;-76
2021/03/21 03:22:52;;;;;;;13.23;8.88;;;21.50;33.30;;;;;;5081487;28;20403;-76
2021/03/21 03:25:30;;;;;;;13.23;8.63;;;21.50;33.30;;;;;;5016095;28;20513;-77
2021/03/21 03:28:10;;;;;;;15.05;9.68;;;21.50;33.30;;;;;;4997207;28;20078;-77
2021/03/21 03:30:43;;;;;;;14.73;8.48;;;21.50;33.30;;;;;;4998084;28;20050;-76
2021/03/21 03:33:09;;;;;;;14.32;9.82;;;21.50;33.40;;;;;;4969491;28;20026;-77
2021/03/21 03:35:36;;;;;;;13.75;9.25;;;21.50;33.40;;;;;;4997720;28;20053;-75
2021/03/21 03:38:07;;;;;;;15.10;9.77;;;21.50;33.40;;;;;;4988303;28;20542;-75
2021/03/21 03:40:37;;;;;;;16.30;9.55;;;21.40;33.40;;;;;;4977897;28;20035;-75
2021/03/21 03:43:20;;;;;;;15.30;9.27;;;21.40;33.40;;;;;;4962341;28;20494;-75
2021/03/21 03:49:40;;;;;;;16.92;10.63;;;21.40;33.50;;;;;;4993990;28;20072;-75
2021/03/21 03:52:33;;;;;;;13.45;9.20;;;21.40;33.50;;;;;;4978070;28;20037;-75
2021/03/21 03:55:05;;;;;;;16.35;10.07;;;21.40;33.60;;;;;;4993968;28;20498;-75
2021/03/21 03:57:48;;;;;;;16.75;10.82;;;21.40;33.60;;;;;;5001715;28;20081;-75
2021/03/21 04:00:27;;;;;;;14.82;10.30;;;21.40;33.60;;;;;;4996184;28;20037;-75
2021/03/21 04:03:09;;;;;;;18.00;10.00;;;21.40;33.70;;;;;;5063795;28;20070;-75
2021/03/21 04:05:37;;;;;;;13.65;9.65;;;21.40;33.70;;;;;;5073595;28;20035;-75
2021/03/21 04:08:11;;;;;;;16.73;11.18;;;21.30;33.60;;;;;;5086129;28;20108;-75
2021/03/21 04:10:44;;;;;;;18.13;11.07;;;21.30;33.60;;;;;;5073999;28;20102;-75
2021/03/21 04:13:23;;;;;;;16.98;10.85;;;21.30;33.70;;;;;;5073409;28;20029;-76
2021/03/21 04:15:52;;;;;;;17.40;11.13;;;21.30;33.70;;;;;;5039764;28;20064;-73
2021/03/21 04:18:21;;;;;;;19.10;11.23;;;21.30;34.40;;;;;;5073186;28;20112;-73
2021/03/21 04:20:49;;;;;;;20.98;12.50;;;21.30;33.80;;;;;;5056488;28;20029;-74
2021/03/21 04:23:30;;;;;;;16.88;11.15;;;21.30;33.80;;;;;;5062022;28;20070;-73
2021/03/21 04:25:58;;;;;;;17.00;11.63;;;21.30;34.20;;;;;;5056462;28;20032;-75
2021/03/21 04:28:52;;;;;;;20.23;11.73;;;21.30;33.90;;;;;;5072715;28;20025;-73
2021/03/21 04:31:17;;;;;;;19.35;12.13;;;21.30;33.90;;;;;;5058330;28;20111;-74
2021/03/21 04:33:48;;;;;;;18.42;11.63;;;21.30;33.90;;;;;;5073646;28;20056;-76
2021/03/21 04:36:25;;;;;;;18.77;11.32;;;21.20;33.90;;;;;;5056478;28;20024;-76
2021/03/21 04:38:58;;;;;;;18.75;11.95;;;21.20;33.90;;;;;;5071933;28;20039;-74
2021/03/21 04:41:26;;;;;;;17.98;11.88;;;21.20;34.00;;;;;;5085316;28;20047;-75
2021/03/21 04:44:16;;;;;;;19.60;11.15;;;21.20;34.00;;;;;;5059705;28;20104;-74
2021/03/21 04:46:45;;;;;;;19.88;12.32;;;21.20;34.00;;;;;;5026600;28;20048;-74
2021/03/21 04:49:11;;;;;;;20.15;13.20;;;21.20;34.00;;;;;;4996051;28;20544;-73
2021/03/21 04:51:41;;;;;;;19.85;12.60;;;21.20;33.90;;;;;;5010921;28;20045;-73
2021/03/21 04:54:15;;;;;;;19.85;12.30;;;21.20;33.90;;;;;;5016667;28;20473;-73
2021/03/21 04:57:22;;;;;;;22.15;12.77;;;21.30;34.00;;;;;;5012343;28;20029;-73
2021/03/21 04:59:48;;;;;;;20.73;12.98;;;21.30;34.00;;;;;;5011003;28;20077;-73
2021/03/21 05:02:15;;;;;;;1.08;0.17;;;21.30;33.90;;;;;;5013959;28;20208;-75
2021/03/21 05:04:45;;;;;;;0.38;0.38;;;21.30;33.90;;;;;;5013341;28;20064;-75
2021/03/21 05:07:43;;;;;;;0.45;0.25;;;21.30;33.90;;;;;;5012588;28;20021;-75
2021/03/21 05:10:25;;;;;;;0.90;0.50;;;21.30;34.00;;;;;;4996242;28;20037;-75
2021/03/21 05:12:55;;;;;;;0.35;0.35;;;21.30;34.10;;;;;;5013201;28;20505;-75
2021/03/21 05:15:33;;;;;;;0.30;0.28;;;21.30;34.10;;;;;;4997981;28;20116;-75
2021/03/21 05:18:25;;;;;;;1.35;0.77;;;21.30;34.20;;;;;;5014442;28;20029;-76
2021/03/21 05:21:16;;;;;;;1.20;0.57;;;21.20;34.30;;;;;;5013683;28;20477;-75
2021/03/21 05:24:09;;;;;;;6.32;0.63;;;21.20;34.30;;;;;;5045599;28;20446;-75
2021/03/21 05:26:53;;;;;;;0.30;0.30;;;21.20;34.30;;;;;;5093090;28;20166;-77
2021/03/21 05:29:31;;;;;;;0.20;0.20;;;21.20;34.40;;;;;;5058124;28;20020;-76
2021/03/21 05:31:56;;;;;;;1.40;0.77;;;21.20;34.40;;;;;;5091567;28;20039;-74
2021/03/21 05:34:22;;;;;;;0.60;0.57;;;21.20;34.40;;;;;;5091374;28;20020;-73
2021/03/21 05:37:03;;;;;;;1.65;0.80;;;21.20;34.50;;;;;;5074038;28;20029;-74
2021/03/21 05:39:51;;;;;;;1.10;0.88;;;21.20;34.50;;;;;;5060029;28;20039;-75
2021/03/21 05:42:44;;;;;;;0.93;0.60;;;21.20;34.60;;;;;;5055480;28;20089;-75
2021/03/21 05:45:41;;;;;;;0.52;0.50;;;21.20;34.60;;;;;;5073010;28;20028;-75
2021/03/21 05:48:25;;;;;;;0.50;0.30;;;21.10;34.60;;;;;;5055742;28;20480;-75
2021/03/21 05:51:09;;;;;;;0.57;0.35;;;21.10;34.70;;;;;;5073366;28;20175;-74
2021/03/21 05:54:05;;;;;;;1.58;0.60;;;21.10;35.40;;;;;;5072538;28;20411;-75
2021/03/21 05:56:54;;;;;;;0.70;0.60;;;21.10;34.80;;;;;;5072993;28;20087;-75
2021/03/21 06:00:04;;;;;;;0.40;0.40;;;21.10;34.80;;;;;;5059522;28;20028;-75
2021/03/21 06:02:49;;;;;;;1.10;0.55;;;21.10;34.90;;;;;;5072547;28;20036;-75
2021/03/21 06:05:33;;;;;;;1.35;0.85;;;21.10;34.90;;;;;;5073695;28;20027;-74
2021/03/21 06:08:21;;;;;;;1.55;0.95;;;21.00;35.00;;;;;;5067325;28;20032;-73
2021/03/21 06:11:18;;;;;;;0.45;0.45;;;21.00;35.00;;;;;;5055075;28;20017;-73
2021/03/21 06:14:02;;;;;;;;;;;21.00;35.00;;;;;;5056189;28;20569;-77
2021/03/21 06:16:46;;;;;;;0.98;0.70;;;21.10;35.10;;;;;;5072235;28;19908;-77
2021/03/21 06:22:45;;;;;;;0.95;0.65;;;21.10;35.30;;;;;;4997917;28;20462;-76
2021/03/21 06:26:03;;;;;;;1.77;1.35;;;21.00;35.30;;;;;;5002933;28;20494;-76
2021/03/21 06:28:48;;;;;;;1.65;0.65;;;21.00;35.30;;;;;;5007987;28;20465;-77
2021/03/21 06:32:04;;;;;;;1.27;1.00;;;21.00;35.40;;;;;;4996908;28;20517;-76
2021/03/21 06:34:58;;;;;;;0.52;0.50;;;21.00;35.40;;;;;;4944802;28;20035;-73
2021/03/21 06:38:01;;;;;;;0.40;0.40;;;20.90;35.50;;;;;;4950666;28;20050;-73
2021/03/21 06:40:45;;;;;;;0.77;0.77;;;21.00;35.60;;;;;;4976769;28;20502;-73
2021/03/21 06:43:32;;;;;;;1.20;1.13;;;21.00;35.70;;;;;;4963509;28;20039;-73
2021/03/21 06:46:19;;;;;;;0.98;0.68;;;21.00;35.70;;;;;;4966629;28;20086;-74
2021/03/21 06:49:21;;;;;;;0.88;0.65;;;21.10;35.80;;;;;;4956732;28;20043;-74
2021/03/21 06:51:52;;;;;;;0.68;0.68;;;21.20;35.70;;;;;;4966321;28;20042;-75
2021/03/21 06:54:30;;;;;;;1.52;0.73;;;21.20;35.70;;;;;;4965962;28;20031;-75
2021/03/21 06:56:59;;;;;;;1.73;1.50;;;21.30;35.60;;;;;;4968987;28;20034;-73
2021/03/21 06:59:53;;;;;;;2.97;1.25;;;21.40;35.40;;;;;;5008154;28;20046;-73
2021/03/21 07:02:38;;;;;;;0.70;0.57;;;21.50;35.40;;;;;;5015919;28;20038;-73
2021/03/21 07:05:09;;;;;;;1.20;0.93;;;21.50;35.20;;;;;;4988624;28;20042;-71
2021/03/21 07:07:53;;;;;;;1.35;0.63;;;21.60;35.10;;;;;;5015444;28;20034;-72
2021/03/21 07:10:38;;;;;;;1.25;0.57;;;21.70;35.00;;;;;;5080118;28;20483;-73
2021/03/21 07:13:19;;;;;;;5.63;2.08;;;21.80;34.90;;;;;;5086170;28;20088;-73
2021/03/21 07:15:51;;;;;;;1.63;1.13;;;21.80;34.80;;;;;;5099008;28;20056;-72
2021/03/21 07:18:54;;;;;;;1.02;0.90;;;21.90;34.80;;;;;;5077802;28;20016;-74
2021/03/21 07:21:36;;;;;;;0.77;0.77;;;22.00;34.70;;;;;;5070160;28;20035;-73
2021/03/21 07:24:26;;;;;;;0.50;0.50;;;22.10;34.70;;;;;;5082705;28;20059;-73
2021/03/21 07:27:03;;;;;;;2.95;2.50;;;22.20;34.60;;;;;;5090321;28;20032;-72
2021/03/21 07:29:50;;;;;;;3.33;1.27;;;22.30;34.40;;;;;;5085183;28;20111;-73
2021/03/21 07:32:21;;;;;;;1.67;1.38;;;22.40;34.30;;;;;;5094650;28;20028;-73
2021/03/21 07:35:09;;;;;;;2.65;1.58;;;22.40;34.20;;;;;;5092780;28;20052;-73
2021/03/21 07:37:42;;;;;;;1.88;1.42;;;22.50;34.00;;;;;;5094521;28;20047;-73
2021/03/21 07:40:50;;;;;;;2.88;1.50;;;22.50;33.90;;;;;;5070601;28;20047;-73
2021/03/21 07:43:40;;;;;;;4.05;2.33;;;22.60;33.80;;;;;;5094737;28;20138;-73
2021/03/21 07:46:14;;;;;;;1.05;0.95;;;22.60;33.70;;;;;;5094575;28;20060;-73
2021/03/21 07:49:34;;;;;;;2.40;1.83;;;22.60;33.70;;;;;;5055188;28;20033;-73
2021/03/21 07:52:24;;;;;;;1.80;1.13;;;22.60;33.70;;;;;;5021129;28;20076;-73
2021/03/21 07:55:10;;;;;;;4.82;1.88;;;22.70;33.70;;;;;;5011676;28;20037;-74
2021/03/21 07:58:03;;;;;;;3.63;1.95;;;22.70;33.80;;;;;;4997124;28;20022;-73
2021/03/21 08:00:28;;;;;;;1.13;0.70;;;22.60;33.70;;;;;;5004710;28;20064;-73
2021/03/21 08:03:14;;;;;;;3.25;2.13;;;22.70;33.80;;;;;;5019261;28;20026;-74
2021/03/21 08:05:40;;;;;;;3.93;2.00;;;22.60;33.70;;;;;;5008616;28;20512;-74
2021/03/21 08:08:10;;;;;;;1.70;1.42;;;22.60;33.80;;;;;;5007962;28;20065;-74
2021/03/21 08:10:39;;;;;;;3.60;1.95;;;22.60;33.90;;;;;;4999930;28;20037;-74
2021/03/21 08:13:18;;;;;;;4.38;2.00;;;22.60;33.90;;;;;;5009164;28;20061;-74
2021/03/21 08:15:44;;;;;;;1.98;1.10;;;22.60;33.90;;;;;;5009139;28;20484;-74
2021/03/21 08:18:20;;;;;;;1.73;0.90;;;22.50;33.90;;;;;;5007537;28;20022;-73
2021/03/21 08:20:53;;;;;;;2.47;1.67;;;22.50;34.00;;;;;;4981490;28;20892;-73
2021/03/21 08:23:26;;;;;;;3.65;2.05;;;22.60;34.00;;;;;;5011651;28;20037;-73
2021/03/21 08:25:53;;;;;;;4.47;1.60;;;22.50;34.00;;;;;;5033092;28;20066;-73
2021/03/21 08:28:20;;;;;;;2.97;1.67;;;22.50;34.00;;;;;;5089594;28;20027;-73
2021/03/21 08:30:54;;;;;;;1.67;1.45;;;22.50;34.10;;;;;;5077211;28;20031;-72
2021/03/21 08:33:28;;;;;;;3.70;2.10;;;22.50;34.10;;;;;;5078397;28;20446;-73
2021/03/21 08:36:11;;;;;;;2.50;1.67;;;22.50;34.10;;;;;;5072076;28;20444;-72
2021/03/21 08:38:37;;;;;;;2.45;1.90;;;22.40;34.10;;;;;;5074687;28;20055;-72
2021/03/21 08:41:03;;;;;;;1.33;1.10;;;22.40;34.10;;;;;;5059248;28;20504;-72
2021/03/21 08:43:35;;;;;;;1.40;0.70;;;22.40;34.20;;;;;;5096471;28;20079;-73
2021/03/21 08:46:14;;;;;;;1.75;0.80;;;22.40;34.20;;;;;;5054832;28;20028;-72
2021/03/21 08:48:40;;;;;;;2.80;1.63;;;22.30;34.20;;;;;;5061280;28;20078;-72
2021/03/21 08:51:12;;;;;;;2.42;1.00;;;22.40;34.20;;;;;;5056801;28;20020;-72
2021/03/21 08:53:42;;;;;;;1.27;0.40;;;22.30;34.10;;;;;;5092610;28;20035;-72
2021/03/21 08:56:24;;;;;;;0.50;0.30;;;22.30;34.10;;;;;;5077517;28;20052;-72
2021/03/21 08:58:51;;;;;;;1.52;0.95;;;22.30;34.20;;;;;;5091140;28;20040;-72
2021/03/21 09:01:22;;;;;;;2.22;0.93;;;22.40;34.80;;;;;;5074282;28;20044;-73
2021/03/21 09:03:48;;;;;;;1.00;0.43;;;22.40;33.90;;;;;;5056594;28;20044;-73
2021/03/21 09:06:35;;;;;;;0.57;0.55;;;22.50;33.70;;;;;;5072658;28;20024;-72
2021/03/21 09:09:22;;;;;;;0.85;0.50;;;22.50;33.50;;;;;;5100166;28;20028;-76
2021/03/21 09:12:25;;;;;;;1.83;0.77;;;22.60;33.50;;;;;;5085510;28;20107;-77
2021/03/21 09:14:51;;;;;;;0.40;0.40;;;22.70;33.30;;;;;;5097369;28;20042;-82
2021/03/21 09:17:26;;;;;;;1.77;0.80;;;22.70;33.40;;;;;;5075906;28;20012;-75
2021/03/21 09:19:59;;;;;;;1.77;0.87;;;22.70;34.00;;;;;;5049437;28;20033;-75
2021/03/21 09:22:37;;;;;;;1.13;0.73;;;22.70;33.40;;;;;;5091277;28;20462;-72
2021/03/21 09:25:19;;;;;;;0.60;0.60;;;22.70;33.60;;;;;;5079709;28;20032;-75
2021/03/21 09:27:45;;;;;;;3.17;1.23;;;22.70;33.70;;;;;;5099456;28;20042;-76
2021/03/21 09:30:36;;;;;;;2.90;1.33;;;22.70;33.80;;;;;;5073096;28;20099;-76
2021/03/21 09:33:10;;;;;;;5.75;2.50;;;22.60;34.00;;;;;;5087185;28;20090;-77
2021/03/21 09:35:51;;;;;;;4.75;2.50;;;22.60;34.20;;;;;;5078748;28;20091;-79
2021/03/21 09:38:36;;;;;;;7.05;2.90;;;22.60;34.50;;;;;;5081273;28;20040;-71
2021/03/21 09:41:07;;;;;;;5.93;2.90;;;22.50;34.80;;;;;;5068863;28;20020;-71
2021/03/21 09:43:35;;;;;;;6.85;2.65;;;22.60;35.20;;;;;;5036959;28;20131;-69
2021/03/21 09:46:19;;;;;;;6.47;2.67;;;22.70;35.20;;;;;;5073502;28;20020;-71
2021/03/21 09:49:12;;;;;;;8.07;2.92;;;22.70;35.10;;;;;;5073688;28;20107;-71
2021/03/21 09:51:45;;;;;;;9.15;3.33;;;22.70;35.00;;;;;;5072407;28;20020;-71
2021/03/21 09:54:22;;;;;;;9.40;2.70;;;22.80;35.10;;;;;;5056336;28;20510;-72
2021/03/21 09:56:55;;;;;;;1.48;1.38;;;22.80;34.90;;;;;;5073280;28;20035;-71
2021/03/21 09:59:55;;;;;;;2.55;1.65;;;22.80;34.80;;;;;;5057197;28;20028;-72
2021/03/21 10:02:44;;;;;;;3.67;1.88;;;22.90;34.70;;;;;;5076333;28;20063;-72
2021/03/21 10:05:11;;;;;;;3.90;1.65;;;23.00;34.50;;;;;;5091667;28;20024;-71
2021/03/21 10:08:11;;;;;;;3.60;1.30;;;23.00;34.30;;;;;;5072874;28;20141;-70
2021/03/21 10:10:41;;;;;;;2.95;1.15;;;23.10;34.00;;;;;;5007955;28;20057;-70
2021/03/21 10:13:07;;;;;;;2.72;1.00;;;23.20;33.60;;;;;;4992090;28;20030;-70
2021/03/21 10:15:52;;;;;;;6.72;1.50;;;23.20;33.40;;;;;;4977676;28;20045;-69
2021/03/21 10:18:41;;;;;;;1.48;0.63;;;23.30;33.30;;;;;;5006890;28;20057;-70
2021/03/21 10:21:07;;;;;;;2.45;1.30;;;23.20;33.10;;;;;;4987636;28;20042;-70
2021/03/21 10:23:48;;;;;;;1.55;0.47;;;23.30;33.00;;;;;;5007388;28;20061;-73
2021/03/21 10:26:13;;;;;;;9.23;0.93;;;23.20;33.00;;;;;;5006369;28;20034;-72
2021/03/21 10:28:44;;;;;;;3.22;0.63;;;23.30;33.00;;;;;;4990586;28;20034;-73
2021/03/21 10:31:26;;;;;;;2.15;0.50;;;23.20;33.00;;;;;;4984516;28;20157;-72
2021/03/21 10:33:52;;;;;;;2.83;0.75;;;23.20;33.20;;;;;;5001688;28;20093;-73
2021/03/21 10:36:39;;;;;;;3.72;0.70;;;23.20;33.40;;;;;;4993741;28;20501;-74
2021/03/21 10:39:11;;;;;;;1.27;0.52;;;23.20;33.60;;;;;;4979519;28;808392;-73
2021/03/21 10:41:57;;;;;;;0.93;0.55;;;23.20;33.50;;;;;;5008885;28;20820;-74
2021/03/21 10:44:31;;;;;;;1.63;0.88;;;23.20;33.60;;;;;;4984246;28;20032;-73
2021/03/21 10:47:26;;;;;;;2.90;0.73;;;23.20;33.60;;;;;;5025092;28;20055;-74
2021/03/21 10:49:56;;;;;;;1.42;0.95;;;23.20;33.60;;;;;;5079660;28;20040;-73
2021/03/21 10:52:35;;;;;;;0.80;0.20;;;23.20;33.50;;;;;;5071979;28;20036;-72
2021/03/21 10:55:13;;;;;;;3.03;0.85;;;23.20;33.60;;;;;;5073644;28;20012;-72
2021/03/21 10:57:42;;;;;;;4.32;0.60;;;23.20;33.60;;;;;;5076762;28;20377;-72
2021/03/21 11:00:19;;;;;;;1.00;0.65;;;23.20;33.60;;;;;;5095156;28;20078;-72
2021/03/21 11:02:50;;;;;;;1.08;0.70;;;23.20;33.70;;;;;;5070389;28;20119;-72
2021/03/21 11:05:35;;;;;;;0.98;0.50;;;23.30;33.60;;;;;;5076336;28;20028;-72
2021/03/21 11:08:13;;;;;;;2.03;0.43;;;23.30;33.50;;;;;;5074251;28;20028;-72
2021/03/21 11:10:44;;;;;;;1.48;0.70;;;23.40;33.40;;;;;;5099122;28;20031;-75
2021/03/21 11:13:14;;;;;;;0.52;0.40;;;23.40;33.30;;;;;;5051865;28;20027;-78
2021/03/21 11:15:46;;;;;;;1.42;0.60;;;23.40;33.20;;;;;;5060848;28;20115;-86
2021/03/21 11:18:23;;;;;;;6.45;0.77;;;23.50;33.40;;;;;;5089914;28;20107;-81
2021/03/21 11:20:51;;;;;;;0.47;0.43;;;23.50;33.40;;;;;;5052064;28;20024;-76
2021/03/21 11:23:21;;;;;;;7.38;1.60;;;23.50;33.50;;;;;;5055576;28;20046;-76
2021/03/21 11:25:47;;;;;;;17.02;1.20;;;23.40;33.50;;;;;;5069980;28;20106;-75
2021/03/21 11:28:26;;;;;;;3.10;1.08;;;23.40;33.60;;;;;;5077549;28;20479;-75
2021/03/21 11:30:53;;;;;;;4.35;0.65;;;23.50;34.00;;;;;;5057746;28;20033;-73
2021/03/21 11:33:29;;;;;;;4.40;1.10;;;23.60;34.20;;;;;;5072903;28;20073;-73
2021/03/21 11:36:27;;;;;;;7.70;1.38;;;23.50;34.00;;;;;;5041774;28;20033;-74
2021/03/21 11:38:53;;;;;;;7.22;1.52;;;23.50;34.00;;;;;;5052089;28;20051;-73
2021/03/21 11:41:36;;;;;;;0.73;0.73;;;23.50;33.90;;;;;;5054389;28;20032;-73
2021/03/21 11:44:15;;;;;;;5.13;0.80;;;23.50;33.80;;;;;;5041508;28;20048;-72
2021/03/21 11:46:40;;;;;;;2.28;0.65;;;23.60;33.70;;;;;;5069645;28;20056;-73
2021/03/21 11:49:06;;;;;;;3.95;0.88;;;23.60;33.60;;;;;;5068340;28;20043;-72
2021/03/21 11:51:31;;;;;;;1.38;0.68;;;23.60;33.60;;;;;;5049514;28;20813;-72
2021/03/21 11:53:57;;;;;;;0.30;0.30;;;23.60;33.60;;;;;;5039856;28;20059;-72
2021/03/21 11:56:27;;;;;;;2.58;0.77;;;23.60;33.50;;;;;;5079647;28;20024;-72
2021/03/21 11:58:58;;;;;;;3.65;0.30;;;23.60;33.40;;;;;;5073989;28;20031;-72
2021/03/21 12:01:31;;;;;;;2.28;0.73;;;23.70;33.40;;;;;;5043180;28;20063;-72
2021/03/21 12:04:02;;;;;;;0.55;0.55;;;23.70;33.20;;;;;;5082993;28;20058;-72
2021/03/21 12:06:47;;;;;;;1.25;0.55;;;23.70;33.10;;;;;;5044996;28;20040;-72
2021/03/21 12:09:24;;;;;;;4.82;0.85;;;23.70;33.10;;;;;;5064614;28;20085;-72
2021/03/21 12:11:49;;;;;;;0.30;0.30;;;23.70;33.10;;;;;;5058766;28;20024;-72
2021/03/21 12:14:30;;;;;;;2.20;0.90;;;23.70;33.10;;;;;;5069172;28;20039;-72
2021/03/21 12:16:56;;;;;;;0.95;0.40;;;23.70;33.10;;;;;;5091311;28;20520;-69
2021/03/21 12:19:26;;;;;;;1.35;0.50;;;23.70;33.10;;;;;;5074394;28;20039;-69
2021/03/21 12:21:56;;;;;;;3.67;0.70;;;23.70;33.10;;;;;;5073439;28;20082;-68
2021/03/21 12:24:23;;;;;;;1.25;0.75;;;23.70;33.00;;;;;;5056117;28;20063;-69
2021/03/21 12:27:00;;;;;;;1.77;0.77;;;23.70;32.90;;;;;;5059162;28;20515;-68
2021/03/21 12:29:41;;;;;;;3.95;0.60;;;23.70;32.80;;;;;;5058544;28;20031;-69
2021/03/21 12:32:30;;;;;;;2.53;1.80;;;23.70;32.90;;;;;;5073350;28;20020;-69
2021/03/21 12:34:56;;;;;;;3.67;3.13;;;23.70;32.90;;;;;;5071877;28;20024;-69
2021/03/21 12:37:42;;;;;;;3.10;2.42;;;23.70;32.80;;;;;;5069055;28;20392;-69
2021/03/21 12:40:14;;;;;;;5.10;4.40;;;23.70;32.90;;;;;;5047992;28;20044;-68
2021/03/21 12:42:44;;;;;;;9.80;6.40;;;23.60;32.90;;;;;;5048910;28;20294;-69
2021/03/21 12:45:28;;;;;;;13.70;7.60;;;23.60;32.90;;;;;;5057342;28;20028;-69
2021/03/21 12:47:53;;;;;;;17.67;11.25;;;23.60;33.00;;;;;;5095585;28;20098;-69
2021/03/21 12:50:35;;;;;;;12.10;8.77;;;23.60;33.00;;;;;;5094446;28;20094;-69
2021/03/21 12:53:11;;;;;;;15.52;9.00;;;23.50;33.00;;;;;;5075474;28;20028;-69
2021/03/21 12:55:37;;;;;;;11.27;7.35;;;23.50;33.00;;;;;;5057409;28;20046;-69
2021/03/21 12:58:03;;;;;;;16.50;5.60;;;23.40;33.00;;;;;;5043584;28;20032;-69
2021/03/21 13:00:30;;;;;;;12.35;7.88;;;23.40;33.10;;;;;;5051633;28;20028;-69
2021/03/21 13:02:57;;;;;;;11.25;7.32;;;23.40;33.20;;;;;;5072659;28;20043;-69
2021/03/21 13:05:35;;;;;;;12.50;6.78;;;23.40;33.20;;;;;;5055505;28;20035;-69
2021/03/21 13:08:01;;;;;;;10.02;6.20;;;23.40;33.20;;;;;;5066949;28;20434;-69
2021/03/21 13:10:28;;;;;;;10.43;7.53;;;23.40;33.20;;;;;;5049923;28;20055;-69
2021/03/21 13:12:53;;;;;;;8.27;5.32;;;23.40;33.20;;;;;;5057011;28;20028;-70
2021/03/21 13:15:20;;;;;;;10.90;5.90;;;23.40;33.20;;;;;;5070144;28;20027;-69
2021/03/21 13:17:45;;;;;;;9.88;6.70;;;23.40;33.20;;;;;;5058772;28;20115;-69
2021/03/21 13:20:13;;;;;;;13.77;3.83;;;23.40;33.20;;;;;;5070530;28;20066;-69
2021/03/21 13:22:39;;;;;;;7.90;4.82;;;23.40;33.20;;;;;;5039175;28;20043;-70
2021/03/21 13:25:05;;;;;;;6.00;4.30;;;23.40;33.10;;;;;;5050728;28;20396;-70
2021/03/21 13:27:31;;;;;;;8.98;5.03;;;23.40;33.10;;;;;;5051997;28;20044;-69
2021/03/21 13:29:58;;;;;;;8.68;5.18;;;23.40;33.10;;;;;;5069905;28;20066;-70
2021/03/21 13:32:24;;;;;;;10.38;4.70;;;23.40;33.10;;;;;;5047276;28;20054;-68
2021/03/21 13:34:50;;;;;;;4.30;2.40;;;23.40;33.10;;;;;;5067503;28;20534;-69
2021/03/21 13:37:19;;;;;;;4.53;3.03;;;23.40;33.00;;;;;;5089403;28;20028;-70